Pagina principale
METAR-TAF:

METAR-TAF

Aeroporti :

Aeroporto di Bergerac Roumanière

Bergerac, Francia

latitudine: 44-49N, longitudine: 000-31E, altezza: 51 m

Osservazione

Il bollettino è stato emesso 33 minuti fa, alle 10:00 UTC
Vento 6 kt da direzioni variabili
Temperature 17°C
Umidità 52%
Pressione 1012 hPa
Visibilità 10 km o più
Nuvoloso ad un'altezza di 4100 ft
Nuvoloso ad un'altezza di 4800 ft
Nuvoloso ad un'altezza di 5400 ft

METAR: LFBE 071000Z AUTO VRB06KT 9999 BKN041 BKN048 BKN054 17/07 Q1012

Ora: 12:33 (10:33 UTC)


TAF: mancante

Osservazioni e previsioni meteorologiche di più di 4000 aeroporti (messaggi METAR e TAF).

Le stazioni disponibili sono rappresentate dai dischi gialli e rossi sulla carta.

Puntare il mouse per vedere il nome della stazione.

Clicca sopra per visualizzare le osservazioni e previsioni meteorologiche.

Per cambiare la mappa : fare clic sui pulsanti verdi con una croce nera per ingrandire, il pulsante verde con un trattino per diminuire, o sulla freccia verde per le mappe adiacenti.


METAR-TAF: